PWSweather.com
Personal Weather Stations
Station Observations
K4FB1
Clubhouse Heritage, Lakeland, FL 33812

Clubhouse HeritageLakeland, FL 33812

Lat: 27.969224, Lon: -81.897769

Elevation: 145

Station Type: Davis Vantage Pro2

http://www.ClubhouseWX.com

High Low Average
Temperature 93.7°F34.3°C 60.9°F16.1°C 76.1°F24.5°C
Dew Point 71.1°F21.7°C -37.4°F-38.6°C 21.8°F-5.7°C
Winds 5.0 mph 8.0 kmh Calm Calm 2.0 mph SE3.2 kmh SE
Wind Gusts 11.0 mph17.7 kmh -- 5.0 mph8.0 kmh
Humidity 68% 0% 29%
Pressure 30.15 in1021.0 mb 30.03 in1016.9 mb -
Precipitation 0.00 in0.0 mm - -
Hour Temp Dew Point Humidity Winds Wind Gusts Pressure Precip Precip Rate Daily Precip Total
12:00 AM 68.0°F20.0°C 40.0°F4.4°C 36% 3.0 mph ESE4.8 kmh ESE 7.0 mph11.3 kmh 30.13 in1020.3 mb 0.00 in0.0 mm 0.00 in0.0 mm 0.00 in0.0 mm
12:05 AM 67.9°F19.9°C 39.9°F4.4°C 36% 3.0 mph ESE4.8 kmh ESE 7.0 mph11.3 kmh 30.13 in1020.3 mb 0.00 in0.0 mm 0.00 in0.0 mm 0.00 in0.0 mm
12:10 AM 67.8°F19.9°C 37.6°F3.1°C 33% 2.0 mph ESE3.2 kmh ESE 6.0 mph9.7 kmh 30.13 in1020.3 mb 0.00 in0.0 mm 0.00 in0.0 mm 0.00 in0.0 mm
12:15 AM 67.6°F19.8°C 35.9°F2.2°C 31% 2.0 mph ESE3.2 kmh ESE 6.0 mph9.7 kmh 30.14 in1020.7 mb 0.00 in0.0 mm 0.00 in0.0 mm 0.00 in0.0 mm
12:20 AM 67.5°F19.7°C 33.2°F0.7°C 28% 2.0 mph ESE3.2 kmh ESE 4.0 mph6.4 kmh 30.14 in1020.7 mb 0.00 in0.0 mm 0.00 in0.0 mm 0.00 in0.0 mm
12:25 AM 67.4°F19.7°C 32.2°F0.1°C 27% 1.0 mph SE1.6 kmh SE 4.0 mph6.4 kmh 30.14 in1020.7 mb 0.00 in0.0 mm 0.00 in0.0 mm 0.00 in0.0 mm
12:30 AM 67.2°F19.6°C 29.2°F-1.6°C 24% 1.0 mph ESE1.6 kmh ESE 5.0 mph8.0 kmh 30.14 in1020.7 mb 0.00 in0.0 mm 0.00 in0.0 mm 0.00 in0.0 mm
12:35 AM 67.1°F19.5°C 26.9°F-2.8°C 22% 1.0 mph ESE1.6 kmh ESE 5.0 mph8.0 kmh 30.14 in1020.7 mb 0.00 in0.0 mm 0.00 in0.0 mm 0.00 in0.0 mm
12:40 AM 67.0°F19.4°C 25.7°F-3.5°C 21% 1.0 mph ESE1.6 kmh ESE 4.0 mph6.4 kmh 30.14 in1020.7 mb 0.00 in0.0 mm 0.00 in0.0 mm 0.00 in0.0 mm
12:45 AM 66.9°F19.4°C 22.0°F-5.6°C 18% 2.0 mph ESE3.2 kmh ESE 4.0 mph6.4 kmh 30.14 in1020.7 mb 0.00 in0.0 mm 0.00 in0.0 mm 0.00 in0.0 mm
12:50 AM 66.8°F19.3°C 17.6°F-8.0°C 15% 2.0 mph ESE3.2 kmh ESE 4.0 mph6.4 kmh 30.13 in1020.3 mb 0.00 in0.0 mm 0.00 in0.0 mm 0.00 in0.0 mm
12:55 AM 66.7°F19.3°C 14.2°F-9.9°C 13% 1.0 mph ESE1.6 kmh ESE 4.0 mph6.4 kmh 30.13 in1020.3 mb 0.00 in0.0 mm 0.00 in0.0 mm 0.00 in0.0 mm
01:00 AM 66.6°F19.2°C 14.2°F-9.9°C 13% 1.0 mph ESE1.6 kmh ESE 4.0 mph6.4 kmh 30.13 in1020.3 mb 0.00 in0.0 mm 0.00 in0.0 mm 0.00 in0.0 mm
01:05 AM 66.5°F19.2°C 8.2°F-13.2°C 10% 1.0 mph E1.6 kmh E 4.0 mph6.4 kmh 30.13 in1020.3 mb 0.00 in0.0 mm 0.00 in0.0 mm 0.00 in0.0 mm
01:10 AM 66.5°F19.2°C -2.9°F-19.4°C 6% 2.0 mph E3.2 kmh E 4.0 mph6.4 kmh 30.13 in1020.3 mb 0.00 in0.0 mm 0.00 in0.0 mm 0.00 in0.0 mm
01:15 AM 66.5°F19.2°C -6.7°F-21.5°C 5% 2.0 mph ESE3.2 kmh ESE 5.0 mph8.0 kmh 30.13 in1020.3 mb 0.00 in0.0 mm 0.00 in0.0 mm 0.00 in0.0 mm
01:20 AM 66.4°F19.1°C -24.8°F-31.6°C 2% 2.0 mph ESE3.2 kmh ESE 5.0 mph8.0 kmh 30.13 in1020.3 mb 0.00 in0.0 mm 0.00 in0.0 mm 0.00 in0.0 mm
01:25 AM 66.4°F19.1°C -37.4°F-38.6°C 0% 2.0 mph SE3.2 kmh SE 4.0 mph6.4 kmh 30.13 in1020.3 mb 0.00 in0.0 mm 0.00 in0.0 mm 0.00 in0.0 mm
01:30 AM 66.4°F19.1°C -37.4°F-38.6°C 0% 2.0 mph SE3.2 kmh SE 4.0 mph6.4 kmh 30.13 in1020.3 mb 0.00 in0.0 mm 0.00 in0.0 mm 0.00 in0.0 mm
01:35 AM 66.3°F19.1°C -37.4°F-38.6°C 0% 2.0 mph ESE3.2 kmh ESE 5.0 mph8.0 kmh 30.12 in1020.0 mb 0.00 in0.0 mm 0.00 in0.0 mm 0.00 in0.0 mm
01:40 AM 66.3°F19.1°C -37.4°F-38.6°C 0% 1.0 mph E1.6 kmh E 5.0 mph8.0 kmh 30.13 in1020.3 mb 0.00 in0.0 mm 0.00 in0.0 mm 0.00 in0.0 mm
01:45 AM 66.4°F19.1°C -37.4°F-38.6°C 0% 1.0 mph E1.6 kmh E 3.0 mph4.8 kmh 30.13 in1020.3 mb 0.00 in0.0 mm 0.00 in0.0 mm 0.00 in0.0 mm
01:50 AM 66.5°F19.2°C -37.4°F-38.6°C 0% 1.0 mph E1.6 kmh E 4.0 mph6.4 kmh 30.12 in1020.0 mb 0.00 in0.0 mm 0.00 in0.0 mm 0.00 in0.0 mm
01:55 AM 66.5°F19.2°C -37.4°F-38.6°C 0% 2.0 mph E3.2 kmh E 6.0 mph9.7 kmh 30.12 in1020.0 mb 0.00 in0.0 mm 0.00 in0.0 mm 0.00 in0.0 mm
02:00 AM 66.6°F19.2°C -37.4°F-38.6°C 0% 2.0 mph E3.2 kmh E 6.0 mph9.7 kmh 30.13 in1020.3 mb 0.00 in0.0 mm 0.00 in0.0 mm 0.00 in0.0 mm
02:05 AM 66.7°F19.3°C -37.4°F-38.6°C 0% 2.0 mph E3.2 kmh E 7.0 mph11.3 kmh 30.12 in1020.0 mb 0.00 in0.0 mm 0.00 in0.0 mm 0.00 in0.0 mm
02:10 AM 66.8°F19.3°C -37.4°F-38.6°C 0% 2.0 mph ESE3.2 kmh ESE 7.0 mph11.3 kmh 30.12 in1020.0 mb 0.00 in0.0 mm 0.00 in0.0 mm 0.00 in0.0 mm
02:15 AM 66.8°F19.3°C -37.4°F-38.6°C 0% 2.0 mph ESE3.2 kmh ESE 4.0 mph6.4 kmh 30.12 in1020.0 mb 0.00 in0.0 mm 0.00 in0.0 mm 0.00 in0.0 mm
02:20 AM 66.9°F19.4°C -37.4°F-38.6°C 0% 2.0 mph SE3.2 kmh SE 6.0 mph9.7 kmh 30.12 in1020.0 mb 0.00 in0.0 mm 0.00 in0.0 mm 0.00 in0.0 mm
02:25 AM 66.9°F19.4°C -37.4°F-38.6°C 0% 2.0 mph SE3.2 kmh SE 6.0 mph9.7 kmh 30.12 in1020.0 mb 0.00 in0.0 mm 0.00 in0.0 mm 0.00 in0.0 mm
02:30 AM 67.0°F19.4°C -37.4°F-38.6°C 0% 3.0 mph SE4.8 kmh SE 5.0 mph8.0 kmh 30.12 in1020.0 mb 0.00 in0.0 mm 0.00 in0.0 mm 0.00 in0.0 mm
02:35 AM 66.9°F19.4°C -37.4°F-38.6°C 0% 3.0 mph SE4.8 kmh SE 5.0 mph8.0 kmh 30.12 in1020.0 mb 0.00 in0.0 mm 0.00 in0.0 mm 0.00 in0.0 mm
02:40 AM 66.9°F19.4°C -37.4°F-38.6°C 0% 2.0 mph SE3.2 kmh SE 7.0 mph11.3 kmh 30.12 in1020.0 mb 0.00 in0.0 mm 0.00 in0.0 mm 0.00 in0.0 mm
02:45 AM 66.9°F19.4°C -37.4°F-38.6°C 0% 2.0 mph SE3.2 kmh SE 7.0 mph11.3 kmh 30.11 in1019.6 mb 0.00 in0.0 mm 0.00 in0.0 mm 0.00 in0.0 mm
02:50 AM 66.8°F19.3°C -37.4°F-38.6°C 0% 2.0 mph ESE3.2 kmh ESE 5.0 mph8.0 kmh 30.11 in1019.6 mb 0.00 in0.0 mm 0.00 in0.0 mm 0.00 in0.0 mm
02:55 AM 66.8°F19.3°C -37.4°F-38.6°C 0% 2.0 mph ESE3.2 kmh ESE 5.0 mph8.0 kmh 30.11 in1019.6 mb 0.00 in0.0 mm 0.00 in0.0 mm 0.00 in0.0 mm
03:00 AM 66.7°F19.3°C -37.4°F-38.6°C 0% 1.0 mph ESE1.6 kmh ESE 5.0 mph8.0 kmh 30.11 in1019.6 mb 0.00 in0.0 mm 0.00 in0.0 mm 0.00 in0.0 mm
03:05 AM 66.7°F19.3°C -37.4°F-38.6°C 0% 2.0 mph ESE3.2 kmh ESE 4.0 mph6.4 kmh 30.12 in1020.0 mb 0.00 in0.0 mm 0.00 in0.0 mm 0.00 in0.0 mm
03:10 AM 66.7°F19.3°C -37.4°F-38.6°C 0% 3.0 mph ESE4.8 kmh ESE 5.0 mph8.0 kmh 30.11 in1019.6 mb 0.00 in0.0 mm 0.00 in0.0 mm 0.00 in0.0 mm
03:15 AM 66.7°F19.3°C -37.4°F-38.6°C 0% 2.0 mph ESE3.2 kmh ESE 5.0 mph8.0 kmh 30.11 in1019.6 mb 0.00 in0.0 mm 0.00 in0.0 mm 0.00 in0.0 mm
03:20 AM 66.7°F19.3°C -37.4°F-38.6°C 0% 2.0 mph ESE3.2 kmh ESE 4.0 mph6.4 kmh 30.11 in1019.6 mb 0.00 in0.0 mm 0.00 in0.0 mm 0.00 in0.0 mm
03:25 AM 66.6°F19.2°C -37.4°F-38.6°C 0% 2.0 mph ESE3.2 kmh ESE 4.0 mph6.4 kmh 30.11 in1019.6 mb 0.00 in0.0 mm 0.00 in0.0 mm 0.00 in0.0 mm
03:30 AM 66.6°F19.2°C -37.4°F-38.6°C 0% 1.0 mph ESE1.6 kmh ESE 3.0 mph4.8 kmh 30.11 in1019.6 mb 0.00 in0.0 mm 0.00 in0.0 mm 0.00 in0.0 mm
03:35 AM 66.6°F19.2°C -37.4°F-38.6°C 0% 1.0 mph ESE1.6 kmh ESE 4.0 mph6.4 kmh 30.11 in1019.6 mb 0.00 in0.0 mm 0.00 in0.0 mm 0.00 in0.0 mm
03:40 AM 66.5°F19.2°C -37.4°F-38.6°C 0% 1.0 mph ESE1.6 kmh ESE 4.0 mph6.4 kmh 30.11 in1019.6 mb 0.00 in0.0 mm 0.00 in0.0 mm 0.00 in0.0 mm
03:45 AM 66.5°F19.2°C -37.4°F-38.6°C 0% 1.0 mph ESE1.6 kmh ESE 4.0 mph6.4 kmh 30.11 in1019.6 mb 0.00 in0.0 mm 0.00 in0.0 mm 0.00 in0.0 mm
03:50 AM 66.5°F19.2°C -37.4°F-38.6°C 0% 2.0 mph ESE3.2 kmh ESE 4.0 mph6.4 kmh 30.11 in1019.6 mb 0.00 in0.0 mm 0.00 in0.0 mm 0.00 in0.0 mm
03:55 AM 66.5°F19.2°C -37.4°F-38.6°C 0% 2.0 mph ESE3.2 kmh ESE 5.0 mph8.0 kmh 30.11 in1019.6 mb 0.00 in0.0 mm 0.00 in0.0 mm 0.00 in0.0 mm
04:00 AM 66.5°F19.2°C -37.4°F-38.6°C 0% 2.0 mph ESE3.2 kmh ESE 5.0 mph8.0 kmh 30.11 in1019.6 mb 0.00 in0.0 mm 0.00 in0.0 mm 0.00 in0.0 mm
04:05 AM 66.4°F19.1°C -37.4°F-38.6°C 0% 2.0 mph ESE3.2 kmh ESE 4.0 mph6.4 kmh 30.11 in1019.6 mb 0.00 in0.0 mm 0.00 in0.0 mm 0.00 in0.0 mm
04:10 AM 66.3°F19.1°C -37.4°F-38.6°C 0% 2.0 mph ESE3.2 kmh ESE 4.0 mph6.4 kmh 30.11 in1019.6 mb 0.00 in0.0 mm 0.00 in0.0 mm 0.00 in0.0 mm
04:15 AM 66.3°F19.1°C -37.4°F-38.6°C 0% 2.0 mph ESE3.2 kmh ESE 4.0 mph6.4 kmh 30.10 in1019.3 mb 0.00 in0.0 mm 0.00 in0.0 mm 0.00 in0.0 mm
04:20 AM 66.1°F18.9°C -37.4°F-38.6°C 0% 1.0 mph ESE1.6 kmh ESE 4.0 mph6.4 kmh 30.10 in1019.3 mb 0.00 in0.0 mm 0.00 in0.0 mm 0.00 in0.0 mm
04:25 AM 65.9°F18.8°C -37.4°F-38.6°C 0% 2.0 mph ESE3.2 kmh ESE 4.0 mph6.4 kmh 30.10 in1019.3 mb 0.00 in0.0 mm 0.00 in0.0 mm 0.00 in0.0 mm
04:30 AM 65.8°F18.8°C -37.4°F-38.6°C 0% 2.0 mph ESE3.2 kmh ESE 4.0 mph6.4 kmh 30.10 in1019.3 mb 0.00 in0.0 mm 0.00 in0.0 mm 0.00 in0.0 mm
04:35 AM 65.7°F18.7°C -37.4°F-38.6°C 0% 2.0 mph ESE3.2 kmh ESE 3.0 mph4.8 kmh 30.10 in1019.3 mb 0.00 in0.0 mm 0.00 in0.0 mm 0.00 in0.0 mm
04:40 AM 65.5°F18.6°C -37.4°F-38.6°C 0% 2.0 mph ESE3.2 kmh ESE 3.0 mph4.8 kmh 30.10 in1019.3 mb 0.00 in0.0 mm 0.00 in0.0 mm 0.00 in0.0 mm
04:45 AM 65.4°F18.6°C -37.4°F-38.6°C 0% 2.0 mph ESE3.2 kmh ESE 3.0 mph4.8 kmh 30.10 in1019.3 mb 0.00 in0.0 mm 0.00 in0.0 mm 0.00 in0.0 mm
04:50 AM 65.2°F18.4°C -37.4°F-38.6°C 0% 1.0 mph ESE1.6 kmh ESE 3.0 mph4.8 kmh 30.10 in1019.3 mb 0.00 in0.0 mm 0.00 in0.0 mm 0.00 in0.0 mm
04:55 AM 65.1°F18.4°C -37.4°F-38.6°C 0% 1.0 mph ESE1.6 kmh ESE 2.0 mph3.2 kmh 30.10 in1019.3 mb 0.00 in0.0 mm 0.00 in0.0 mm 0.00 in0.0 mm
05:00 AM 64.9°F18.3°C -37.4°F-38.6°C 0% 1.0 mph ESE1.6 kmh ESE 2.0 mph3.2 kmh 30.09 in1019.0 mb 0.00 in0.0 mm 0.00 in0.0 mm 0.00 in0.0 mm
05:05 AM 64.8°F18.2°C -37.4°F-38.6°C 0% 1.0 mph ESE1.6 kmh ESE 2.0 mph3.2 kmh 30.09 in1019.0 mb 0.00 in0.0 mm 0.00 in0.0 mm 0.00 in0.0 mm
05:10 AM 64.6°F18.1°C -37.4°F-38.6°C 0% 1.0 mph ESE1.6 kmh ESE 2.0 mph3.2 kmh 30.10 in1019.3 mb 0.00 in0.0 mm 0.00 in0.0 mm 0.00 in0.0 mm
05:15 AM 64.4°F18.0°C -37.4°F-38.6°C 0% 1.0 mph ESE1.6 kmh ESE 2.0 mph3.2 kmh 30.09 in1019.0 mb 0.00 in0.0 mm 0.00 in0.0 mm 0.00 in0.0 mm
05:20 AM 64.3°F17.9°C -37.4°F-38.6°C 0% 1.0 mph ESE1.6 kmh ESE 1.0 mph1.6 kmh 30.09 in1019.0 mb 0.00 in0.0 mm 0.00 in0.0 mm 0.00 in0.0 mm
05:25 AM 64.1°F17.8°C -37.4°F-38.6°C 0% 1.0 mph ESE1.6 kmh ESE 1.0 mph1.6 kmh 30.09 in1019.0 mb 0.00 in0.0 mm 0.00 in0.0 mm 0.00 in0.0 mm
05:30 AM 63.9°F17.7°C -37.4°F-38.6°C 0% Calm Calm 1.0 mph1.6 kmh 30.09 in1019.0 mb 0.00 in0.0 mm 0.00 in0.0 mm 0.00 in0.0 mm
05:35 AM 63.7°F17.6°C -37.4°F-38.6°C 0% Calm Calm 1.0 mph1.6 kmh 30.09 in1019.0 mb 0.00 in0.0 mm 0.00 in0.0 mm 0.00 in0.0 mm
05:40 AM 63.5°F17.5°C -37.4°F-38.6°C 0% Calm Calm 1.0 mph1.6 kmh 30.09 in1019.0 mb 0.00 in0.0 mm 0.00 in0.0 mm 0.00 in0.0 mm
05:45 AM 63.3°F17.4°C -37.4°F-38.6°C 0% Calm Calm 1.0 mph1.6 kmh 30.09 in1019.0 mb 0.00 in0.0 mm 0.00 in0.0 mm 0.00 in0.0 mm
05:50 AM 63.1°F17.3°C -37.4°F-38.6°C 0% Calm Calm 2.0 mph3.2 kmh 30.09 in1019.0 mb 0.00 in0.0 mm 0.00 in0.0 mm 0.00 in0.0 mm
05:55 AM 62.9°F17.2°C -37.4°F-38.6°C 0% 1.0 mph ESE1.6 kmh ESE 2.0 mph3.2 kmh 30.09 in1019.0 mb 0.00 in0.0 mm 0.00 in0.0 mm 0.00 in0.0 mm
06:00 AM 62.7°F17.1°C -37.4°F-38.6°C 0% Calm Calm 1.0 mph1.6 kmh 30.10 in1019.3 mb 0.00 in0.0 mm 0.00 in0.0 mm 0.00 in0.0 mm
06:05 AM 62.6°F17.0°C -37.4°F-38.6°C 0% Calm Calm 1.0 mph1.6 kmh 30.10 in1019.3 mb 0.00 in0.0 mm 0.00 in0.0 mm 0.00 in0.0 mm
06:10 AM 62.6°F17.0°C -37.4°F-38.6°C 0% 1.0 mph ESE1.6 kmh ESE 1.0 mph1.6 kmh 30.10 in1019.3 mb 0.00 in0.0 mm 0.00 in0.0 mm 0.00 in0.0 mm
06:15 AM 62.4°F16.9°C -37.4°F-38.6°C 0% Calm Calm 1.0 mph1.6 kmh 30.10 in1019.3 mb 0.00 in0.0 mm 0.00 in0.0 mm 0.00 in0.0 mm
06:20 AM 62.2°F16.8°C -37.4°F-38.6°C 0% Calm Calm 1.0 mph1.6 kmh 30.10 in1019.3 mb 0.00 in0.0 mm 0.00 in0.0 mm 0.00 in0.0 mm
06:25 AM 62.1°F16.7°C -37.4°F-38.6°C 0% Calm Calm -- 30.10 in1019.3 mb 0.00 in0.0 mm 0.00 in0.0 mm 0.00 in0.0 mm
06:30 AM 61.9°F16.6°C -37.4°F-38.6°C 0% Calm Calm -- 30.11 in1019.6 mb 0.00 in0.0 mm 0.00 in0.0 mm 0.00 in0.0 mm
06:35 AM 61.7°F16.5°C -37.4°F-38.6°C 0% Calm Calm -- 30.11 in1019.6 mb 0.00 in0.0 mm 0.00 in0.0 mm 0.00 in0.0 mm
06:40 AM 61.5°F16.4°C -37.4°F-38.6°C 0% Calm Calm 1.0 mph1.6 kmh 30.11 in1019.6 mb 0.00 in0.0 mm 0.00 in0.0 mm 0.00 in0.0 mm
06:45 AM 61.4°F16.3°C -37.4°F-38.6°C 0% Calm Calm 1.0 mph1.6 kmh 30.11 in1019.6 mb 0.00 in0.0 mm 0.00 in0.0 mm 0.00 in0.0 mm
06:50 AM 61.2°F16.2°C -37.4°F-38.6°C 0% Calm Calm 1.0 mph1.6 kmh 30.11 in1019.6 mb 0.00 in0.0 mm 0.00 in0.0 mm 0.00 in0.0 mm
06:55 AM 61.1°F16.2°C -37.4°F-38.6°C 0% Calm Calm -- 30.11 in1019.6 mb 0.00 in0.0 mm 0.00 in0.0 mm 0.00 in0.0 mm
07:00 AM 61.0°F16.1°C -37.4°F-38.6°C 0% Calm Calm 1.0 mph1.6 kmh 30.11 in1019.6 mb 0.00 in0.0 mm 0.00 in0.0 mm 0.00 in0.0 mm
07:05 AM 60.9°F16.1°C -37.4°F-38.6°C 0% Calm Calm 2.0 mph3.2 kmh 30.11 in1019.6 mb 0.00 in0.0 mm 0.00 in0.0 mm 0.00 in0.0 mm
07:10 AM 61.0°F16.1°C -37.4°F-38.6°C 0% 1.0 mph ESE1.6 kmh ESE 2.0 mph3.2 kmh 30.11 in1019.6 mb 0.00 in0.0 mm 0.00 in0.0 mm 0.00 in0.0 mm
07:15 AM 61.3°F16.3°C -37.4°F-38.6°C 0% 1.0 mph ESE1.6 kmh ESE 2.0 mph3.2 kmh 30.11 in1019.6 mb 0.00 in0.0 mm 0.00 in0.0 mm 0.00 in0.0 mm
07:20 AM 61.4°F16.3°C -37.4°F-38.6°C 0% 1.0 mph ESE1.6 kmh ESE 2.0 mph3.2 kmh 30.12 in1020.0 mb 0.00 in0.0 mm 0.00 in0.0 mm 0.00 in0.0 mm
07:25 AM 61.5°F16.4°C -37.4°F-38.6°C 0% 1.0 mph ESE1.6 kmh ESE 2.0 mph3.2 kmh 30.12 in1020.0 mb 0.00 in0.0 mm 0.00 in0.0 mm 0.00 in0.0 mm
07:30 AM 61.6°F16.4°C -37.4°F-38.6°C 0% Calm Calm 1.0 mph1.6 kmh 30.12 in1020.0 mb 0.00 in0.0 mm 0.00 in0.0 mm 0.00 in0.0 mm
07:35 AM 61.5°F16.4°C -37.4°F-38.6°C 0% Calm Calm 1.0 mph1.6 kmh 30.12 in1020.0 mb 0.00 in0.0 mm 0.00 in0.0 mm 0.00 in0.0 mm
07:40 AM 61.4°F16.3°C -37.4°F-38.6°C 0% Calm Calm 1.0 mph1.6 kmh 30.12 in1020.0 mb 0.00 in0.0 mm 0.00 in0.0 mm 0.00 in0.0 mm
07:45 AM 61.2°F16.2°C -37.4°F-38.6°C 0% Calm Calm 1.0 mph1.6 kmh 30.12 in1020.0 mb 0.00 in0.0 mm 0.00 in0.0 mm 0.00 in0.0 mm
07:50 AM 61.1°F16.2°C -37.4°F-38.6°C 0% Calm Calm 1.0 mph1.6 kmh 30.12 in1020.0 mb 0.00 in0.0 mm 0.00 in0.0 mm 0.00 in0.0 mm
07:55 AM 60.9°F16.1°C -37.4°F-38.6°C 0% Calm Calm 1.0 mph1.6 kmh 30.12 in1020.0 mb 0.00 in0.0 mm 0.00 in0.0 mm 0.00 in0.0 mm
08:00 AM 61.2°F16.2°C -37.4°F-38.6°C 0% Calm Calm 1.0 mph1.6 kmh 30.12 in1020.0 mb 0.00 in0.0 mm 0.00 in0.0 mm 0.00 in0.0 mm
08:05 AM 61.2°F16.2°C -37.4°F-38.6°C 0% Calm Calm 1.0 mph1.6 kmh 30.13 in1020.3 mb 0.00 in0.0 mm 0.00 in0.0 mm 0.00 in0.0 mm
08:10 AM 61.2°F16.2°C -37.4°F-38.6°C 0% Calm Calm 1.0 mph1.6 kmh 30.13 in1020.3 mb 0.00 in0.0 mm 0.00 in0.0 mm 0.00 in0.0 mm
08:15 AM 61.2°F16.2°C -37.4°F-38.6°C 0% Calm Calm 1.0 mph1.6 kmh 30.13 in1020.3 mb 0.00 in0.0 mm 0.00 in0.0 mm 0.00 in0.0 mm
08:20 AM 61.4°F16.3°C -37.4°F-38.6°C 0% Calm Calm 2.0 mph3.2 kmh 30.13 in1020.3 mb 0.00 in0.0 mm 0.00 in0.0 mm 0.00 in0.0 mm
08:25 AM 62.2°F16.8°C -37.4°F-38.6°C 0% 1.0 mph ESE1.6 kmh ESE 3.0 mph4.8 kmh 30.13 in1020.3 mb 0.00 in0.0 mm 0.00 in0.0 mm 0.00 in0.0 mm
08:30 AM 63.1°F17.3°C -37.4°F-38.6°C 0% 2.0 mph ESE3.2 kmh ESE 3.0 mph4.8 kmh 30.13 in1020.3 mb 0.00 in0.0 mm 0.00 in0.0 mm 0.00 in0.0 mm
08:35 AM 63.8°F17.7°C -37.4°F-38.6°C 0% 1.0 mph ESE1.6 kmh ESE 3.0 mph4.8 kmh 30.13 in1020.3 mb 0.00 in0.0 mm 0.00 in0.0 mm 0.00 in0.0 mm
08:40 AM 64.3°F17.9°C -37.4°F-38.6°C 0% 1.0 mph ESE1.6 kmh ESE 3.0 mph4.8 kmh 30.13 in1020.3 mb 0.00 in0.0 mm 0.00 in0.0 mm 0.00 in0.0 mm
08:45 AM 65.1°F18.4°C -37.4°F-38.6°C 0% 2.0 mph ESE3.2 kmh ESE 4.0 mph6.4 kmh 30.13 in1020.3 mb 0.00 in0.0 mm 0.00 in0.0 mm 0.00 in0.0 mm
08:50 AM 66.0°F18.9°C -37.4°F-38.6°C 0% 3.0 mph ESE4.8 kmh ESE 7.0 mph11.3 kmh 30.13 in1020.3 mb 0.00 in0.0 mm 0.00 in0.0 mm 0.00 in0.0 mm
08:55 AM 66.7°F19.3°C -37.4°F-38.6°C 0% 3.0 mph SE4.8 kmh SE 7.0 mph11.3 kmh 30.13 in1020.3 mb 0.00 in0.0 mm 0.00 in0.0 mm 0.00 in0.0 mm
09:00 AM 67.3°F19.6°C -37.4°F-38.6°C 0% 3.0 mph SE4.8 kmh SE 6.0 mph9.7 kmh 30.14 in1020.7 mb 0.00 in0.0 mm 0.00 in0.0 mm 0.00 in0.0 mm
09:05 AM 68.0°F20.0°C -37.4°F-38.6°C 0% 3.0 mph SE4.8 kmh SE 6.0 mph9.7 kmh 30.14 in1020.7 mb 0.00 in0.0 mm 0.00 in0.0 mm 0.00 in0.0 mm
09:10 AM 68.8°F20.4°C -37.4°F-38.6°C 0% 3.0 mph SE4.8 kmh SE 6.0 mph9.7 kmh 30.14 in1020.7 mb 0.00 in0.0 mm 0.00 in0.0 mm 0.00 in0.0 mm
09:15 AM 69.6°F20.9°C -37.4°F-38.6°C 0% 3.0 mph SE4.8 kmh SE 5.0 mph8.0 kmh 30.14 in1020.7 mb 0.00 in0.0 mm 0.00 in0.0 mm 0.00 in0.0 mm
09:20 AM 70.3°F21.3°C -37.4°F-38.6°C 0% 3.0 mph SE4.8 kmh SE 5.0 mph8.0 kmh 30.14 in1020.7 mb 0.00 in0.0 mm 0.00 in0.0 mm 0.00 in0.0 mm
09:25 AM 71.0°F21.7°C -37.4°F-38.6°C 0% 3.0 mph ESE4.8 kmh ESE 5.0 mph8.0 kmh 30.14 in1020.7 mb 0.00 in0.0 mm 0.00 in0.0 mm 0.00 in0.0 mm
09:30 AM 71.9°F22.2°C -37.4°F-38.6°C 0% 3.0 mph SE4.8 kmh SE 7.0 mph11.3 kmh 30.14 in1020.7 mb 0.00 in0.0 mm 0.00 in0.0 mm 0.00 in0.0 mm
09:35 AM 72.7°F22.6°C -37.4°F-38.6°C 0% 3.0 mph SE4.8 kmh SE 7.0 mph11.3 kmh 30.14 in1020.7 mb 0.00 in0.0 mm 0.00 in0.0 mm 0.00 in0.0 mm
09:40 AM 73.4°F23.0°C -37.4°F-38.6°C 0% 4.0 mph SE6.4 kmh SE 7.0 mph11.3 kmh 30.14 in1020.7 mb 0.00 in0.0 mm 0.00 in0.0 mm 0.00 in0.0 mm
09:45 AM 74.2°F23.4°C 14.1°F-9.9°C 10% 3.0 mph SE4.8 kmh SE 7.0 mph11.3 kmh 30.14 in1020.7 mb 0.00 in0.0 mm 0.00 in0.0 mm 0.00 in0.0 mm
09:50 AM 74.9°F23.8°C 25.6°F-3.6°C 16% 4.0 mph SE6.4 kmh SE 8.0 mph12.9 kmh 30.14 in1020.7 mb 0.00 in0.0 mm 0.00 in0.0 mm 0.00 in0.0 mm
09:55 AM 75.3°F24.1°C 34.9°F1.6°C 23% 5.0 mph SE8.0 kmh SE 10.0 mph16.1 kmh 30.14 in1020.7 mb 0.00 in0.0 mm 0.00 in0.0 mm 0.00 in0.0 mm
10:00 AM 75.7°F24.3°C 36.3°F2.4°C 24% 5.0 mph SE8.0 kmh SE 10.0 mph16.1 kmh 30.14 in1020.7 mb 0.00 in0.0 mm 0.00 in0.0 mm 0.00 in0.0 mm
10:05 AM 76.2°F24.6°C 39.8°F4.3°C 27% 5.0 mph SE8.0 kmh SE 8.0 mph12.9 kmh 30.14 in1020.7 mb 0.00 in0.0 mm 0.00 in0.0 mm 0.00 in0.0 mm
10:10 AM 76.7°F24.8°C 44.6°F7.0°C 32% 4.0 mph SE6.4 kmh SE 9.0 mph14.5 kmh 30.14 in1020.7 mb 0.00 in0.0 mm 0.00 in0.0 mm 0.00 in0.0 mm
10:15 AM 77.4°F25.2°C 46.0°F7.8°C 33% 4.0 mph SE6.4 kmh SE 9.0 mph14.5 kmh 30.14 in1020.7 mb 0.00 in0.0 mm 0.00 in0.0 mm 0.00 in0.0 mm
10:20 AM 78.0°F25.6°C 53.7°F12.1°C 43% 4.0 mph SE6.4 kmh SE 9.0 mph14.5 kmh 30.14 in1020.7 mb 0.00 in0.0 mm 0.00 in0.0 mm 0.00 in0.0 mm
10:25 AM 78.5°F25.8°C 53.5°F11.9°C 42% 5.0 mph SE8.0 kmh SE 11.0 mph17.7 kmh 30.15 in1021.0 mb 0.00 in0.0 mm 0.00 in0.0 mm 0.00 in0.0 mm
10:30 AM 78.9°F26.1°C 57.0°F13.9°C 47% 5.0 mph SE8.0 kmh SE 11.0 mph17.7 kmh 30.15 in1021.0 mb 0.00 in0.0 mm 0.00 in0.0 mm 0.00 in0.0 mm
10:35 AM 79.3°F26.3°C 58.5°F14.7°C 49% 4.0 mph SSE6.4 kmh SSE 9.0 mph14.5 kmh 30.15 in1021.0 mb 0.00 in0.0 mm 0.00 in0.0 mm 0.00 in0.0 mm
10:40 AM 79.7°F26.5°C 60.0°F15.6°C 51% 5.0 mph SE8.0 kmh SE 11.0 mph17.7 kmh 30.15 in1021.0 mb 0.00 in0.0 mm 0.00 in0.0 mm 0.00 in0.0 mm
10:45 AM 80.1°F26.7°C 63.0°F17.2°C 56% 5.0 mph SE8.0 kmh SE 11.0 mph17.7 kmh 30.15 in1021.0 mb 0.00 in0.0 mm 0.00 in0.0 mm 0.00 in0.0 mm
10:50 AM 80.5°F26.9°C 62.8°F17.1°C 55% 4.0 mph SE6.4 kmh SE 9.0 mph14.5 kmh 30.15 in1021.0 mb 0.00 in0.0 mm 0.00 in0.0 mm 0.00 in0.0 mm
10:55 AM 81.0°F27.2°C 64.3°F17.9°C 57% 4.0 mph SE6.4 kmh SE 8.0 mph12.9 kmh 30.15 in1021.0 mb 0.00 in0.0 mm 0.00 in0.0 mm 0.00 in0.0 mm
11:00 AM 81.6°F27.6°C 65.9°F18.8°C 59% 3.0 mph SE4.8 kmh SE 8.0 mph12.9 kmh 30.15 in1021.0 mb 0.00 in0.0 mm 0.00 in0.0 mm 0.00 in0.0 mm
11:05 AM 82.0°F27.8°C 67.7°F19.8°C 62% 4.0 mph SE6.4 kmh SE 8.0 mph12.9 kmh 30.15 in1021.0 mb 0.00 in0.0 mm 0.00 in0.0 mm 0.00 in0.0 mm
11:10 AM 82.0°F27.8°C 68.2°F20.1°C 63% 4.0 mph SSE6.4 kmh SSE 8.0 mph12.9 kmh 30.15 in1021.0 mb 0.00 in0.0 mm 0.00 in0.0 mm 0.00 in0.0 mm
11:15 AM 82.2°F27.9°C 68.3°F20.2°C 63% 4.0 mph SSE6.4 kmh SSE 9.0 mph14.5 kmh 30.15 in1021.0 mb 0.00 in0.0 mm 0.00 in0.0 mm 0.00 in0.0 mm
11:20 AM 82.1°F27.8°C 68.3°F20.2°C 63% 4.0 mph SSE6.4 kmh SSE 9.0 mph14.5 kmh 30.14 in1020.7 mb 0.00 in0.0 mm 0.00 in0.0 mm 0.00 in0.0 mm
11:25 AM 82.7°F28.2°C 69.3°F20.7°C 64% 4.0 mph SSE6.4 kmh SSE 7.0 mph11.3 kmh 30.14 in1020.7 mb 0.00 in0.0 mm 0.00 in0.0 mm 0.00 in0.0 mm
11:30 AM 83.3°F28.5°C 69.8°F21.0°C 64% 4.0 mph SSE6.4 kmh SSE 7.0 mph11.3 kmh 30.14 in1020.7 mb 0.00 in0.0 mm 0.00 in0.0 mm 0.00 in0.0 mm
11:35 AM 83.9°F28.8°C 70.4°F21.3°C 64% 3.0 mph SE4.8 kmh SE 7.0 mph11.3 kmh 30.14 in1020.7 mb 0.00 in0.0 mm 0.00 in0.0 mm 0.00 in0.0 mm
11:40 AM 84.5°F29.2°C 71.0°F21.7°C 64% 3.0 mph SE4.8 kmh SE 9.0 mph14.5 kmh 30.14 in1020.7 mb 0.00 in0.0 mm 0.00 in0.0 mm 0.00 in0.0 mm
11:45 AM 84.9°F29.4°C 70.4°F21.3°C 62% 4.0 mph SE6.4 kmh SE 9.0 mph14.5 kmh 30.14 in1020.7 mb 0.00 in0.0 mm 0.00 in0.0 mm 0.00 in0.0 mm
11:50 AM 85.3°F29.6°C 70.8°F21.6°C 62% 5.0 mph ESE8.0 kmh ESE 9.0 mph14.5 kmh 30.14 in1020.7 mb 0.00 in0.0 mm 0.00 in0.0 mm 0.00 in0.0 mm
11:55 AM 85.8°F29.9°C 70.8°F21.6°C 61% 4.0 mph SE6.4 kmh SE 9.0 mph14.5 kmh 30.14 in1020.7 mb 0.00 in0.0 mm 0.00 in0.0 mm 0.00 in0.0 mm
12:00 PM 86.1°F30.1°C 71.1°F21.7°C 61% 4.0 mph SE6.4 kmh SE 10.0 mph16.1 kmh 30.14 in1020.7 mb 0.00 in0.0 mm 0.00 in0.0 mm 0.00 in0.0 mm
12:05 PM 86.0°F30.0°C 70.5°F21.4°C 60% 5.0 mph SE8.0 kmh SE 10.0 mph16.1 kmh 30.14 in1020.7 mb 0.00 in0.0 mm 0.00 in0.0 mm 0.00 in0.0 mm
12:10 PM 85.9°F29.9°C 70.4°F21.3°C 60% 5.0 mph SE8.0 kmh SE 10.0 mph16.1 kmh 30.14 in1020.7 mb 0.00 in0.0 mm 0.00 in0.0 mm 0.00 in0.0 mm
12:15 PM 86.1°F30.1°C 69.1°F20.6°C 57% 4.0 mph SSE6.4 kmh SSE 10.0 mph16.1 kmh 30.13 in1020.3 mb 0.00 in0.0 mm 0.00 in0.0 mm 0.00 in0.0 mm
12:20 PM 86.4°F30.2°C 70.9°F21.6°C 60% 3.0 mph S4.8 kmh S 8.0 mph12.9 kmh 30.13 in1020.3 mb 0.00 in0.0 mm 0.00 in0.0 mm 0.00 in0.0 mm
12:25 PM 86.9°F30.5°C 70.3°F21.3°C 58% 3.0 mph SSE4.8 kmh SSE 7.0 mph11.3 kmh 30.13 in1020.3 mb 0.00 in0.0 mm 0.00 in0.0 mm 0.00 in0.0 mm
12:30 PM 87.2°F30.7°C 70.1°F21.2°C 57% 3.0 mph ESE4.8 kmh ESE 7.0 mph11.3 kmh 30.13 in1020.3 mb 0.00 in0.0 mm 0.00 in0.0 mm 0.00 in0.0 mm
12:35 PM 86.9°F30.5°C 70.3°F21.3°C 58% 3.0 mph E4.8 kmh E 7.0 mph11.3 kmh 30.13 in1020.3 mb 0.00 in0.0 mm 0.00 in0.0 mm 0.00 in0.0 mm
12:40 PM 87.0°F30.6°C 69.4°F20.8°C 56% 3.0 mph SE4.8 kmh SE 8.0 mph12.9 kmh 30.13 in1020.3 mb 0.00 in0.0 mm 0.00 in0.0 mm 0.00 in0.0 mm
12:45 PM 87.3°F30.7°C 69.2°F20.7°C 55% 4.0 mph S6.4 kmh S 8.0 mph12.9 kmh 30.13 in1020.3 mb 0.00 in0.0 mm 0.00 in0.0 mm 0.00 in0.0 mm
12:50 PM 87.7°F30.9°C 70.1°F21.2°C 56% 3.0 mph S4.8 kmh S 7.0 mph11.3 kmh 30.13 in1020.3 mb 0.00 in0.0 mm 0.00 in0.0 mm 0.00 in0.0 mm
12:55 PM 88.3°F31.3°C 69.5°F20.8°C 54% 2.0 mph SSE3.2 kmh SSE 6.0 mph9.7 kmh 30.12 in1020.0 mb 0.00 in0.0 mm 0.00 in0.0 mm 0.00 in0.0 mm
01:00 PM 88.7°F31.5°C 68.8°F20.4°C 52% 3.0 mph SE4.8 kmh SE 6.0 mph9.7 kmh 30.12 in1020.0 mb 0.00 in0.0 mm 0.00 in0.0 mm 0.00 in0.0 mm
01:05 PM 89.0°F31.7°C 69.1°F20.6°C 52% 3.0 mph SSE4.8 kmh SSE 6.0 mph9.7 kmh 30.12 in1020.0 mb 0.00 in0.0 mm 0.00 in0.0 mm 0.00 in0.0 mm
01:10 PM 89.0°F31.7°C 69.1°F20.6°C 52% 3.0 mph S4.8 kmh S 7.0 mph11.3 kmh 30.12 in1020.0 mb 0.00 in0.0 mm 0.00 in0.0 mm 0.00 in0.0 mm
01:15 PM 89.3°F31.8°C 68.2°F20.1°C 50% 3.0 mph SSE4.8 kmh SSE 7.0 mph11.3 kmh 30.11 in1019.6 mb 0.00 in0.0 mm 0.00 in0.0 mm 0.00 in0.0 mm
01:20 PM 89.7°F32.1°C 68.6°F20.3°C 50% 2.0 mph SSE3.2 kmh SSE 3.0 mph4.8 kmh 30.11 in1019.6 mb 0.00 in0.0 mm 0.00 in0.0 mm 0.00 in0.0 mm
01:25 PM 89.3°F31.8°C 68.8°F20.4°C 51% 2.0 mph SW3.2 kmh SW 5.0 mph8.0 kmh 30.11 in1019.6 mb 0.00 in0.0 mm 0.00 in0.0 mm 0.00 in0.0 mm
01:30 PM 88.7°F31.5°C 69.4°F20.8°C 53% 2.0 mph SW3.2 kmh SW 5.0 mph8.0 kmh 30.11 in1019.6 mb 0.00 in0.0 mm 0.00 in0.0 mm 0.00 in0.0 mm
01:35 PM 89.1°F31.7°C 67.5°F19.7°C 49% 2.0 mph SSE3.2 kmh SSE 5.0 mph8.0 kmh 30.11 in1019.6 mb 0.00 in0.0 mm 0.00 in0.0 mm 0.00 in0.0 mm
01:40 PM 89.3°F31.8°C 67.6°F19.8°C 49% 3.0 mph SSE4.8 kmh SSE 7.0 mph11.3 kmh 30.11 in1019.6 mb 0.00 in0.0 mm 0.00 in0.0 mm 0.00 in0.0 mm
01:45 PM 89.0°F31.7°C 67.4°F19.7°C 49% 3.0 mph SSW4.8 kmh SSW 7.0 mph11.3 kmh 30.11 in1019.6 mb 0.00 in0.0 mm 0.00 in0.0 mm 0.00 in0.0 mm
01:50 PM 88.7°F31.5°C 68.2°F20.1°C 51% 3.0 mph SW4.8 kmh SW 7.0 mph11.3 kmh 30.10 in1019.3 mb 0.00 in0.0 mm 0.00 in0.0 mm 0.00 in0.0 mm
01:55 PM 89.1°F31.7°C 67.5°F19.7°C 49% 3.0 mph SW4.8 kmh SW 7.0 mph11.3 kmh 30.10 in1019.3 mb 0.00 in0.0 mm 0.00 in0.0 mm 0.00 in0.0 mm
02:00 PM 89.7°F32.1°C 68.6°F20.3°C 50% 2.0 mph SSW3.2 kmh SSW 5.0 mph8.0 kmh 30.10 in1019.3 mb 0.00 in0.0 mm 0.00 in0.0 mm 0.00 in0.0 mm
02:05 PM 90.0°F32.2°C 68.3°F20.2°C 49% 2.0 mph SSW3.2 kmh SSW 7.0 mph11.3 kmh 30.09 in1019.0 mb 0.00 in0.0 mm 0.00 in0.0 mm 0.00 in0.0 mm
02:10 PM 90.1°F32.3°C 67.2°F19.6°C 47% 4.0 mph S6.4 kmh S 8.0 mph12.9 kmh 30.09 in1019.0 mb 0.00 in0.0 mm 0.00 in0.0 mm 0.00 in0.0 mm
02:15 PM 90.4°F32.4°C 67.4°F19.7°C 47% 3.0 mph SW4.8 kmh SW 8.0 mph12.9 kmh 30.09 in1019.0 mb 0.00 in0.0 mm 0.00 in0.0 mm 0.00 in0.0 mm
02:20 PM 90.8°F32.7°C 69.0°F20.6°C 49% 2.0 mph W3.2 kmh W 5.0 mph8.0 kmh 30.09 in1019.0 mb 0.00 in0.0 mm 0.00 in0.0 mm 0.00 in0.0 mm
02:25 PM 91.1°F32.8°C 67.4°F19.7°C 46% 3.0 mph WSW4.8 kmh WSW 6.0 mph9.7 kmh 30.09 in1019.0 mb 0.00 in0.0 mm 0.00 in0.0 mm 0.00 in0.0 mm
02:30 PM 91.3°F32.9°C 68.2°F20.1°C 47% 3.0 mph SW4.8 kmh SW 6.0 mph9.7 kmh 30.09 in1019.0 mb 0.00 in0.0 mm 0.00 in0.0 mm 0.00 in0.0 mm
02:35 PM 91.1°F32.8°C 67.4°F19.7°C 46% 2.0 mph SW3.2 kmh SW 5.0 mph8.0 kmh 30.08 in1018.6 mb 0.00 in0.0 mm 0.00 in0.0 mm 0.00 in0.0 mm
02:40 PM 90.7°F32.6°C 67.7°F19.8°C 47% 2.0 mph SSW3.2 kmh SSW 5.0 mph8.0 kmh 30.08 in1018.6 mb 0.00 in0.0 mm 0.00 in0.0 mm 0.00 in0.0 mm
02:45 PM 90.0°F32.2°C 69.4°F20.8°C 51% 1.0 mph SSW1.6 kmh SSW 4.0 mph6.4 kmh 30.08 in1018.6 mb 0.00 in0.0 mm 0.00 in0.0 mm 0.00 in0.0 mm
02:50 PM 90.0°F32.2°C 67.7°F19.8°C 48% 2.0 mph WSW3.2 kmh WSW 7.0 mph11.3 kmh 30.07 in1018.3 mb 0.00 in0.0 mm 0.00 in0.0 mm 0.00 in0.0 mm
02:55 PM 90.1°F32.3°C 69.0°F20.6°C 50% 3.0 mph W4.8 kmh W 7.0 mph11.3 kmh 30.07 in1018.3 mb 0.00 in0.0 mm 0.00 in0.0 mm 0.00 in0.0 mm
03:00 PM 90.0°F32.2°C 67.7°F19.8°C 48% 2.0 mph W3.2 kmh W 5.0 mph8.0 kmh 30.07 in1018.3 mb 0.00 in0.0 mm 0.00 in0.0 mm 0.00 in0.0 mm
03:05 PM 90.0°F32.2°C 68.3°F20.2°C 49% 2.0 mph SW3.2 kmh SW 3.0 mph4.8 kmh 30.07 in1018.3 mb 0.00 in0.0 mm 0.00 in0.0 mm 0.00 in0.0 mm
03:10 PM 90.4°F32.4°C 68.0°F20.0°C 48% 2.0 mph SW3.2 kmh SW 5.0 mph8.0 kmh 30.07 in1018.3 mb 0.00 in0.0 mm 0.00 in0.0 mm 0.00 in0.0 mm
03:15 PM 90.5°F32.5°C 67.5°F19.7°C 47% 2.0 mph SE3.2 kmh SE 5.0 mph8.0 kmh 30.06 in1017.9 mb 0.00 in0.0 mm 0.00 in0.0 mm 0.00 in0.0 mm
03:20 PM 90.7°F32.6°C 68.3°F20.2°C 48% 2.0 mph SE3.2 kmh SE 5.0 mph8.0 kmh 30.06 in1017.9 mb 0.00 in0.0 mm 0.00 in0.0 mm 0.00 in0.0 mm
03:25 PM 91.0°F32.8°C 68.0°F20.0°C 47% 2.0 mph SSE3.2 kmh SSE 7.0 mph11.3 kmh 30.06 in1017.9 mb 0.00 in0.0 mm 0.00 in0.0 mm 0.00 in0.0 mm
03:30 PM 91.2°F32.9°C 66.9°F19.4°C 45% 2.0 mph S3.2 kmh S 7.0 mph11.3 kmh 30.06 in1017.9 mb 0.00 in0.0 mm 0.00 in0.0 mm 0.00 in0.0 mm
03:35 PM 91.5°F33.1°C 67.2°F19.6°C 45% 2.0 mph S3.2 kmh S 5.0 mph8.0 kmh 30.05 in1017.6 mb 0.00 in0.0 mm 0.00 in0.0 mm 0.00 in0.0 mm
03:40 PM 92.1°F33.4°C 67.7°F19.8°C 45% 2.0 mph S3.2 kmh S 5.0 mph8.0 kmh 30.05 in1017.6 mb 0.00 in0.0 mm 0.00 in0.0 mm 0.00 in0.0 mm
03:45 PM 92.4°F33.6°C 68.6°F20.3°C 46% 2.0 mph ENE3.2 kmh ENE 6.0 mph9.7 kmh 30.05 in1017.6 mb 0.00 in0.0 mm 0.00 in0.0 mm 0.00 in0.0 mm
03:50 PM 92.9°F33.8°C 68.4°F20.2°C 45% 2.0 mph E3.2 kmh E 6.0 mph9.7 kmh 30.05 in1017.6 mb 0.00 in0.0 mm 0.00 in0.0 mm 0.00 in0.0 mm
03:55 PM 93.7°F34.3°C 67.8°F19.9°C 43% 2.0 mph E3.2 kmh E 5.0 mph8.0 kmh 30.05 in1017.6 mb 0.00 in0.0 mm 0.00 in0.0 mm 0.00 in0.0 mm
04:00 PM 92.6°F33.7°C 67.5°F19.7°C 44% 1.0 mph E1.6 kmh E 5.0 mph8.0 kmh 30.05 in1017.6 mb 0.00 in0.0 mm 0.00 in0.0 mm 0.00 in0.0 mm
04:05 PM 91.7°F33.2°C 66.7°F19.3°C 44% 2.0 mph E3.2 kmh E 6.0 mph9.7 kmh 30.05 in1017.6 mb 0.00 in0.0 mm 0.00 in0.0 mm 0.00 in0.0 mm
04:10 PM 90.9°F32.7°C 66.6°F19.2°C 45% 2.0 mph ENE3.2 kmh ENE 6.0 mph9.7 kmh 30.05 in1017.6 mb 0.00 in0.0 mm 0.00 in0.0 mm 0.00 in0.0 mm
04:15 PM 90.5°F32.5°C 67.5°F19.7°C 47% 1.0 mph ENE1.6 kmh ENE 4.0 mph6.4 kmh 30.05 in1017.6 mb 0.00 in0.0 mm 0.00 in0.0 mm 0.00 in0.0 mm
04:20 PM 90.9°F32.7°C 67.3°F19.6°C 46% 2.0 mph NE3.2 kmh NE 5.0 mph8.0 kmh 30.05 in1017.6 mb 0.00 in0.0 mm 0.00 in0.0 mm 0.00 in0.0 mm
04:25 PM 91.2°F32.9°C 67.5°F19.7°C 46% 3.0 mph NE4.8 kmh NE 6.0 mph9.7 kmh 30.04 in1017.3 mb 0.00 in0.0 mm 0.00 in0.0 mm 0.00 in0.0 mm
04:30 PM 91.9°F33.3°C 67.5°F19.7°C 45% 3.0 mph ENE4.8 kmh ENE 6.0 mph9.7 kmh 30.04 in1017.3 mb 0.00 in0.0 mm 0.00 in0.0 mm 0.00 in0.0 mm
04:35 PM 92.4°F33.6°C 66.7°F19.3°C 43% 2.0 mph NE3.2 kmh NE 6.0 mph9.7 kmh 30.04 in1017.3 mb 0.00 in0.0 mm 0.00 in0.0 mm 0.00 in0.0 mm
04:40 PM 92.7°F33.7°C 66.9°F19.4°C 43% 3.0 mph NE4.8 kmh NE 6.0 mph9.7 kmh 30.04 in1017.3 mb 0.00 in0.0 mm 0.00 in0.0 mm 0.00 in0.0 mm
04:45 PM 92.8°F33.8°C 67.7°F19.8°C 44% 3.0 mph ENE4.8 kmh ENE 8.0 mph12.9 kmh 30.04 in1017.3 mb 0.00 in0.0 mm 0.00 in0.0 mm 0.00 in0.0 mm
04:50 PM 92.6°F33.7°C 66.8°F19.3°C 43% 4.0 mph ENE6.4 kmh ENE 8.0 mph12.9 kmh 30.04 in1017.3 mb 0.00 in0.0 mm 0.00 in0.0 mm 0.00 in0.0 mm
04:55 PM 92.5°F33.6°C 67.4°F19.7°C 44% 4.0 mph ENE6.4 kmh ENE 8.0 mph12.9 kmh 30.04 in1017.3 mb 0.00 in0.0 mm 0.00 in0.0 mm 0.00 in0.0 mm
05:00 PM 92.9°F33.8°C 66.4°F19.1°C 42% 2.0 mph E3.2 kmh E 7.0 mph11.3 kmh 30.04 in1017.3 mb 0.00 in0.0 mm 0.00 in0.0 mm 0.00 in0.0 mm
05:05 PM 93.2°F34.0°C 66.7°F19.3°C 42% 2.0 mph ESE3.2 kmh ESE 5.0 mph8.0 kmh 30.03 in1016.9 mb 0.00 in0.0 mm 0.00 in0.0 mm 0.00 in0.0 mm
05:10 PM 92.8°F33.8°C 66.3°F19.1°C 42% 2.0 mph SSW3.2 kmh SSW 5.0 mph8.0 kmh 30.03 in1016.9 mb 0.00 in0.0 mm 0.00 in0.0 mm 0.00 in0.0 mm
05:15 PM 93.1°F33.9°C 66.6°F19.2°C 42% 1.0 mph W1.6 kmh W 4.0 mph6.4 kmh 30.03 in1016.9 mb 0.00 in0.0 mm 0.00 in0.0 mm 0.00 in0.0 mm
05:20 PM 93.6°F34.2°C 66.4°F19.1°C 41% 2.0 mph SSW3.2 kmh SSW 5.0 mph8.0 kmh 30.03 in1016.9 mb 0.00 in0.0 mm 0.00 in0.0 mm 0.00 in0.0 mm
05:25 PM 93.4°F34.1°C 66.9°F19.4°C 42% 2.0 mph SE3.2 kmh SE 5.0 mph8.0 kmh 30.03 in1016.9 mb 0.00 in0.0 mm 0.00 in0.0 mm 0.00 in0.0 mm
05:30 PM 92.4°F33.6°C 66.0°F18.9°C 42% 3.0 mph SE4.8 kmh SE 6.0 mph9.7 kmh 30.03 in1016.9 mb 0.00 in0.0 mm 0.00 in0.0 mm 0.00 in0.0 mm
05:35 PM 91.4°F33.0°C 66.4°F19.1°C 44% 2.0 mph SE3.2 kmh SE 6.0 mph9.7 kmh 30.03 in1016.9 mb 0.00 in0.0 mm 0.00 in0.0 mm 0.00 in0.0 mm
05:40 PM 90.7°F32.6°C 66.4°F19.1°C 45% 1.0 mph SE1.6 kmh SE 3.0 mph4.8 kmh 30.03 in1016.9 mb 0.00 in0.0 mm 0.00 in0.0 mm 0.00 in0.0 mm
05:45 PM 90.1°F32.3°C 65.2°F18.4°C 44% 1.0 mph SE1.6 kmh SE 2.0 mph3.2 kmh 30.03 in1016.9 mb 0.00 in0.0 mm 0.00 in0.0 mm 0.00 in0.0 mm
05:50 PM 89.5°F31.9°C 66.0°F18.9°C 46% Calm Calm 1.0 mph1.6 kmh 30.03 in1016.9 mb 0.00 in0.0 mm 0.00 in0.0 mm 0.00 in0.0 mm
05:55 PM 89.1°F31.7°C 65.6°F18.7°C 46% 1.0 mph SE1.6 kmh SE 2.0 mph3.2 kmh 30.03 in1016.9 mb 0.00 in0.0 mm 0.00 in0.0 mm 0.00 in0.0 mm
06:00 PM 88.6°F31.4°C 65.8°F18.8°C 47% 1.0 mph SE1.6 kmh SE 3.0 mph4.8 kmh 30.03 in1016.9 mb 0.00 in0.0 mm 0.00 in0.0 mm 0.00 in0.0 mm
06:05 PM 88.1°F31.2°C 65.3°F18.5°C 47% 2.0 mph SE3.2 kmh SE 3.0 mph4.8 kmh 30.03 in1016.9 mb 0.00 in0.0 mm 0.00 in0.0 mm 0.00 in0.0 mm
06:10 PM 87.7°F30.9°C 66.2°F19.0°C 49% 2.0 mph SE3.2 kmh SE 3.0 mph4.8 kmh 30.04 in1017.3 mb 0.00 in0.0 mm 0.00 in0.0 mm 0.00 in0.0 mm
06:15 PM 87.4°F30.8°C 65.9°F18.8°C 49% 1.0 mph SE1.6 kmh SE 3.0 mph4.8 kmh 30.03 in1016.9 mb 0.00 in0.0 mm 0.00 in0.0 mm 0.00 in0.0 mm
06:20 PM 87.0°F30.6°C 65.5°F18.6°C 49% Calm Calm 1.0 mph1.6 kmh 30.03 in1016.9 mb 0.00 in0.0 mm 0.00 in0.0 mm 0.00 in0.0 mm
06:25 PM 86.7°F30.4°C 65.8°F18.8°C 50% Calm Calm 3.0 mph4.8 kmh 30.04 in1017.3 mb 0.00 in0.0 mm 0.00 in0.0 mm 0.00 in0.0 mm
06:30 PM 86.5°F30.3°C 66.2°F19.0°C 51% 1.0 mph SE1.6 kmh SE 4.0 mph6.4 kmh 30.04 in1017.3 mb 0.00 in0.0 mm 0.00 in0.0 mm 0.00 in0.0 mm
06:35 PM 86.1°F30.1°C 65.9°F18.8°C 51% 2.0 mph S3.2 kmh S 5.0 mph8.0 kmh 30.04 in1017.3 mb 0.00 in0.0 mm 0.00 in0.0 mm 0.00 in0.0 mm
06:40 PM 85.3°F29.6°C 68.8°F20.4°C 58% 3.0 mph SSW4.8 kmh SSW 7.0 mph11.3 kmh 30.04 in1017.3 mb 0.00 in0.0 mm 0.00 in0.0 mm 0.00 in0.0 mm
06:45 PM 84.5°F29.2°C 69.6°F20.9°C 61% 4.0 mph SW6.4 kmh SW 8.0 mph12.9 kmh 30.05 in1017.6 mb 0.00 in0.0 mm 0.00 in0.0 mm 0.00 in0.0 mm
06:50 PM 83.6°F28.7°C 69.2°F20.7°C 62% 3.0 mph SW4.8 kmh SW 8.0 mph12.9 kmh 30.05 in1017.6 mb 0.00 in0.0 mm 0.00 in0.0 mm 0.00 in0.0 mm
06:55 PM 83.0°F28.3°C 69.1°F20.6°C 63% 3.0 mph SSW4.8 kmh SSW 8.0 mph12.9 kmh 30.05 in1017.6 mb 0.00 in0.0 mm 0.00 in0.0 mm 0.00 in0.0 mm
07:00 PM 82.4°F28.0°C 69.4°F20.8°C 65% 3.0 mph S4.8 kmh S 8.0 mph12.9 kmh 30.05 in1017.6 mb 0.00 in0.0 mm 0.00 in0.0 mm 0.00 in0.0 mm
07:05 PM 81.8°F27.7°C 69.3°F20.7°C 66% 4.0 mph S6.4 kmh S 9.0 mph14.5 kmh 30.05 in1017.6 mb 0.00 in0.0 mm 0.00 in0.0 mm 0.00 in0.0 mm
07:10 PM 81.3°F27.4°C 69.3°F20.7°C 67% 4.0 mph SSW6.4 kmh SSW 9.0 mph14.5 kmh 30.05 in1017.6 mb 0.00 in0.0 mm 0.00 in0.0 mm 0.00 in0.0 mm
07:15 PM 81.0°F27.2°C 69.0°F20.6°C 67% 3.0 mph S4.8 kmh S 6.0 mph9.7 kmh 30.05 in1017.6 mb 0.00 in0.0 mm 0.00 in0.0 mm 0.00 in0.0 mm
07:20 PM 80.7°F27.1°C 69.2°F20.7°C 68% 2.0 mph S3.2 kmh S 6.0 mph9.7 kmh 30.05 in1017.6 mb 0.00 in0.0 mm 0.00 in0.0 mm 0.00 in0.0 mm
07:25 PM 80.3°F26.8°C 68.8°F20.4°C 68% 2.0 mph SSW3.2 kmh SSW 4.0 mph6.4 kmh 30.05 in1017.6 mb 0.00 in0.0 mm 0.00 in0.0 mm 0.00 in0.0 mm
07:30 PM 79.9°F26.6°C 68.4°F20.2°C 68% 2.0 mph SW3.2 kmh SW 6.0 mph9.7 kmh 30.06 in1017.9 mb 0.00 in0.0 mm 0.00 in0.0 mm 0.00 in0.0 mm
07:35 PM 79.5°F26.4°C 68.0°F20.0°C 68% 3.0 mph SW4.8 kmh SW 10.0 mph16.1 kmh 30.06 in1017.9 mb 0.00 in0.0 mm 0.00 in0.0 mm 0.00 in0.0 mm
07:40 PM 79.2°F26.2°C 67.7°F19.8°C 68% 3.0 mph SW4.8 kmh SW 10.0 mph16.1 kmh 30.06 in1017.9 mb 0.00 in0.0 mm 0.00 in0.0 mm 0.00 in0.0 mm
07:45 PM 78.9°F26.1°C 67.4°F19.7°C 68% 2.0 mph WSW3.2 kmh WSW 6.0 mph9.7 kmh 30.06 in1017.9 mb 0.00 in0.0 mm 0.00 in0.0 mm 0.00 in0.0 mm
07:50 PM 78.7°F25.9°C 67.2°F19.6°C 68% 3.0 mph WSW4.8 kmh WSW 6.0 mph9.7 kmh 30.06 in1017.9 mb 0.00 in0.0 mm 0.00 in0.0 mm 0.00 in0.0 mm
07:55 PM 78.4°F25.8°C 66.5°F19.2°C 67% 3.0 mph WSW4.8 kmh WSW 6.0 mph9.7 kmh 30.06 in1017.9 mb 0.00 in0.0 mm 0.00 in0.0 mm 0.00 in0.0 mm
08:00 PM 78.2°F25.7°C 66.3°F19.1°C 67% 2.0 mph WSW3.2 kmh WSW 6.0 mph9.7 kmh 30.06 in1017.9 mb 0.00 in0.0 mm 0.00 in0.0 mm 0.00 in0.0 mm
08:05 PM 78.0°F25.6°C 65.7°F18.7°C 66% 3.0 mph WSW4.8 kmh WSW 6.0 mph9.7 kmh 30.06 in1017.9 mb 0.00 in0.0 mm 0.00 in0.0 mm 0.00 in0.0 mm
08:10 PM 77.8°F25.4°C 65.5°F18.6°C 66% 2.0 mph WSW3.2 kmh WSW 6.0 mph9.7 kmh 30.06 in1017.9 mb 0.00 in0.0 mm 0.00 in0.0 mm 0.00 in0.0 mm
08:15 PM 77.6°F25.3°C 64.9°F18.3°C 65% 2.0 mph W3.2 kmh W 5.0 mph8.0 kmh 30.06 in1017.9 mb 0.00 in0.0 mm 0.00 in0.0 mm 0.00 in0.0 mm
08:20 PM 77.4°F25.2°C 64.3°F17.9°C 64% 2.0 mph W3.2 kmh W 7.0 mph11.3 kmh 30.07 in1018.3 mb 0.00 in0.0 mm 0.00 in0.0 mm 0.00 in0.0 mm
08:25 PM 77.2°F25.1°C 64.1°F17.8°C 64% 3.0 mph W4.8 kmh W 8.0 mph12.9 kmh 30.07 in1018.3 mb 0.00 in0.0 mm 0.00 in0.0 mm 0.00 in0.0 mm
08:30 PM 77.0°F25.0°C 63.4°F17.4°C 63% 2.0 mph W3.2 kmh W 8.0 mph12.9 kmh 30.07 in1018.3 mb 0.00 in0.0 mm 0.00 in0.0 mm 0.00 in0.0 mm
08:35 PM 76.7°F24.8°C 62.7°F17.1°C 62% 2.0 mph W3.2 kmh W 5.0 mph8.0 kmh 30.07 in1018.3 mb 0.00 in0.0 mm 0.00 in0.0 mm 0.00 in0.0 mm
08:40 PM 76.5°F24.7°C 62.0°F16.7°C 61% 2.0 mph W3.2 kmh W 5.0 mph8.0 kmh 30.07 in1018.3 mb 0.00 in0.0 mm 0.00 in0.0 mm 0.00 in0.0 mm
08:45 PM 76.3°F24.6°C 61.4°F16.3°C 60% 2.0 mph W3.2 kmh W 5.0 mph8.0 kmh 30.08 in1018.6 mb 0.00 in0.0 mm 0.00 in0.0 mm 0.00 in0.0 mm
08:50 PM 76.1°F24.5°C 60.7°F15.9°C 59% 2.0 mph WSW3.2 kmh WSW 5.0 mph8.0 kmh 30.08 in1018.6 mb 0.00 in0.0 mm 0.00 in0.0 mm 0.00 in0.0 mm
08:55 PM 76.0°F24.4°C 60.6°F15.9°C 59% 2.0 mph WSW3.2 kmh WSW 5.0 mph8.0 kmh 30.08 in1018.6 mb 0.00 in0.0 mm 0.00 in0.0 mm 0.00 in0.0 mm
09:00 PM 75.8°F24.3°C 60.0°F15.6°C 58% 3.0 mph WSW4.8 kmh WSW 6.0 mph9.7 kmh 30.08 in1018.6 mb 0.00 in0.0 mm 0.00 in0.0 mm 0.00 in0.0 mm
09:05 PM 75.7°F24.3°C 59.9°F15.5°C 58% 3.0 mph W4.8 kmh W 6.0 mph9.7 kmh 30.08 in1018.6 mb 0.00 in0.0 mm 0.00 in0.0 mm 0.00 in0.0 mm
09:10 PM 75.5°F24.2°C 59.2°F15.1°C 57% 2.0 mph W3.2 kmh W 6.0 mph9.7 kmh 30.08 in1018.6 mb 0.00 in0.0 mm 0.00 in0.0 mm 0.00 in0.0 mm
09:15 PM 75.4°F24.1°C 58.1°F14.5°C 55% 2.0 mph W3.2 kmh W 5.0 mph8.0 kmh 30.09 in1019.0 mb 0.00 in0.0 mm 0.00 in0.0 mm 0.00 in0.0 mm
09:20 PM 75.2°F24.0°C 56.9°F13.8°C 53% 2.0 mph W3.2 kmh W 6.0 mph9.7 kmh 30.09 in1019.0 mb 0.00 in0.0 mm 0.00 in0.0 mm 0.00 in0.0 mm
09:25 PM 75.0°F23.9°C 55.1°F12.8°C 50% 2.0 mph W3.2 kmh W 6.0 mph9.7 kmh 30.09 in1019.0 mb 0.00 in0.0 mm 0.00 in0.0 mm 0.00 in0.0 mm
09:30 PM 74.9°F23.8°C 53.9°F12.2°C 48% 2.0 mph WNW3.2 kmh WNW 4.0 mph6.4 kmh 30.09 in1019.0 mb 0.00 in0.0 mm 0.00 in0.0 mm 0.00 in0.0 mm
09:35 PM 74.9°F23.8°C 52.7°F11.5°C 46% 2.0 mph W3.2 kmh W 5.0 mph8.0 kmh 30.10 in1019.3 mb 0.00 in0.0 mm 0.00 in0.0 mm 0.00 in0.0 mm
09:40 PM 74.9°F23.8°C 52.7°F11.5°C 46% 2.0 mph W3.2 kmh W 5.0 mph8.0 kmh 30.10 in1019.3 mb 0.00 in0.0 mm 0.00 in0.0 mm 0.00 in0.0 mm
09:45 PM 74.8°F23.8°C 52.0°F11.1°C 45% 2.0 mph WSW3.2 kmh WSW 5.0 mph8.0 kmh 30.10 in1019.3 mb 0.00 in0.0 mm 0.00 in0.0 mm 0.00 in0.0 mm
09:50 PM 74.8°F23.8°C 51.4°F10.8°C 44% 1.0 mph W1.6 kmh W 5.0 mph8.0 kmh 30.10 in1019.3 mb 0.00 in0.0 mm 0.00 in0.0 mm 0.00 in0.0 mm
09:55 PM 74.8°F23.8°C 51.4°F10.8°C 44% 1.0 mph WNW1.6 kmh WNW 5.0 mph8.0 kmh 30.10 in1019.3 mb 0.00 in0.0 mm 0.00 in0.0 mm 0.00 in0.0 mm
10:00 PM 74.7°F23.7°C 50.7°F10.4°C 43% 1.0 mph WNW1.6 kmh WNW 4.0 mph6.4 kmh 30.10 in1019.3 mb 0.00 in0.0 mm 0.00 in0.0 mm 0.00 in0.0 mm
10:05 PM 74.7°F23.7°C 50.1°F10.1°C 42% 2.0 mph W3.2 kmh W 4.0 mph6.4 kmh 30.10 in1019.3 mb 0.00 in0.0 mm 0.00 in0.0 mm 0.00 in0.0 mm
10:10 PM 74.7°F23.7°C 50.1°F10.1°C 42% 2.0 mph W3.2 kmh W 5.0 mph8.0 kmh 30.10 in1019.3 mb 0.00 in0.0 mm 0.00 in0.0 mm 0.00 in0.0 mm
10:15 PM 74.6°F23.7°C 50.0°F10.0°C 42% 2.0 mph W3.2 kmh W 5.0 mph8.0 kmh 30.10 in1019.3 mb 0.00 in0.0 mm 0.00 in0.0 mm 0.00 in0.0 mm
10:20 PM 74.6°F23.7°C 49.3°F9.6°C 41% 2.0 mph W3.2 kmh W 4.0 mph6.4 kmh 30.10 in1019.3 mb 0.00 in0.0 mm 0.00 in0.0 mm 0.00 in0.0 mm
10:25 PM 74.6°F23.7°C 49.3°F9.6°C 41% 2.0 mph WNW3.2 kmh WNW 5.0 mph8.0 kmh 30.11 in1019.6 mb 0.00 in0.0 mm 0.00 in0.0 mm 0.00 in0.0 mm
10:30 PM 74.5°F23.6°C 49.2°F9.6°C 41% 2.0 mph NW3.2 kmh NW 5.0 mph8.0 kmh 30.11 in1019.6 mb 0.00 in0.0 mm 0.00 in0.0 mm 0.00 in0.0 mm
10:35 PM 74.3°F23.5°C 47.7°F8.7°C 39% 1.0 mph NW1.6 kmh NW 3.0 mph4.8 kmh 30.11 in1019.6 mb 0.00 in0.0 mm 0.00 in0.0 mm 0.00 in0.0 mm
10:40 PM 74.2°F23.4°C 47.6°F8.7°C 39% 1.0 mph NW1.6 kmh NW 3.0 mph4.8 kmh 30.11 in1019.6 mb 0.00 in0.0 mm 0.00 in0.0 mm 0.00 in0.0 mm
10:45 PM 74.1°F23.4°C 46.9°F8.3°C 38% Calm Calm 3.0 mph4.8 kmh 30.11 in1019.6 mb 0.00 in0.0 mm 0.00 in0.0 mm 0.00 in0.0 mm
10:50 PM 74.0°F23.3°C 46.8°F8.2°C 38% Calm Calm 3.0 mph4.8 kmh 30.11 in1019.6 mb 0.00 in0.0 mm 0.00 in0.0 mm 0.00 in0.0 mm
10:55 PM 73.8°F23.2°C 45.2°F7.3°C 36% Calm Calm 1.0 mph1.6 kmh 30.11 in1019.6 mb 0.00 in0.0 mm 0.00 in0.0 mm 0.00 in0.0 mm
11:00 PM 73.6°F23.1°C 45.0°F7.2°C 36% Calm Calm 2.0 mph3.2 kmh 30.11 in1019.6 mb 0.00 in0.0 mm 0.00 in0.0 mm 0.00 in0.0 mm
11:05 PM 73.4°F23.0°C 43.3°F6.3°C 34% Calm Calm 2.0 mph3.2 kmh 30.11 in1019.6 mb 0.00 in0.0 mm 0.00 in0.0 mm 0.00 in0.0 mm
11:10 PM 73.2°F22.9°C 40.7°F4.8°C 31% Calm Calm 1.0 mph1.6 kmh 30.11 in1019.6 mb 0.00 in0.0 mm 0.00 in0.0 mm 0.00 in0.0 mm
11:15 PM 72.9°F22.7°C 39.6°F4.2°C 30% 1.0 mph NW1.6 kmh NW 2.0 mph3.2 kmh 30.11 in1019.6 mb 0.00 in0.0 mm 0.00 in0.0 mm 0.00 in0.0 mm
11:20 PM 72.7°F22.6°C 34.8°F1.6°C 25% 1.0 mph NW1.6 kmh NW 2.0 mph3.2 kmh 30.11 in1019.6 mb 0.00 in0.0 mm 0.00 in0.0 mm 0.00 in0.0 mm
11:25 PM 72.4°F22.4°C 31.4°F-0.3°C 22% 1.0 mph NW1.6 kmh NW 2.0 mph3.2 kmh 30.11 in1019.6 mb 0.00 in0.0 mm 0.00 in0.0 mm 0.00 in0.0 mm
11:30 PM 72.2°F22.3°C 32.3°F0.2°C 23% Calm Calm 2.0 mph3.2 kmh 30.11 in1019.6 mb 0.00 in0.0 mm 0.00 in0.0 mm 0.00 in0.0 mm
11:35 PM 72.1°F22.3°C 32.2°F0.1°C 23% Calm Calm 1.0 mph1.6 kmh 30.11 in1019.6 mb 0.00 in0.0 mm 0.00 in0.0 mm 0.00 in0.0 mm
11:40 PM 71.9°F22.2°C 26.1°F-3.3°C 18% Calm Calm 1.0 mph1.6 kmh 30.11 in1019.6 mb 0.00 in0.0 mm 0.00 in0.0 mm 0.00 in0.0 mm
11:45 PM 71.7°F22.1°C 21.5°F-5.8°C 15% Calm Calm 1.0 mph1.6 kmh 30.11 in1019.6 mb 0.00 in0.0 mm 0.00 in0.0 mm 0.00 in0.0 mm
11:50 PM 71.5°F21.9°C 14.2°F-9.9°C 11% Calm Calm 1.0 mph1.6 kmh 30.11 in1019.6 mb 0.00 in0.0 mm 0.00 in0.0 mm 0.00 in0.0 mm
11:55 PM 71.4°F21.9°C 4.0°F-15.6°C 7% Calm Calm 1.0 mph1.6 kmh 30.11 in1019.6 mb 0.00 in0.0 mm 0.00 in0.0 mm 0.00 in0.0 mm